Time;durP1;ratioP1;P1;durP2;ratioP2;P2;SDS_P1;SDS_P2;PMS_P1;PMS_P2;Temp;Humidity;BMP_temperature;BMP_pressure;BME280_temperature;BME280_humidity;BME280_pressure;Samples;Min_cycle;Max_cycle;Signal;HPM_P1;HPM_P2
2023/12/12 00:00:05;;;;;;;1.47;0.93;;;;;;;-143.84;88.17;45249.00;5089958;28;21235;-59
2023/12/12 00:02:32;;;;;;;2.80;2.57;;;;;;;-143.84;87.45;45275.66;5089426;28;20438;-59
2023/12/12 00:05:00;;;;;;;1.20;0.70;;;;;;;-143.84;87.12;45216.63;5089498;28;20542;-59
2023/12/12 00:07:27;;;;;;;0.80;0.60;;;;;;;-143.84;87.46;45243.31;5089632;28;20544;-59
2023/12/12 00:09:54;;;;;;;0.90;0.70;;;;;;;-143.84;87.00;45266.16;5089830;28;21319;-59
2023/12/12 00:12:21;;;;;;;1.13;1.03;;;;;;;-143.84;86.68;45250.91;5089956;28;20450;-59
2023/12/12 00:14:48;;;;;;;0.80;0.60;;;;;;;-143.84;86.48;45228.06;5089907;28;20548;-59
2023/12/12 00:17:17;;;;;;;1.47;1.20;;;;;;;-143.84;85.65;45250.91;5089586;28;20481;-59
2023/12/12 00:19:44;;;;;;;1.17;1.07;;;;;;;-143.84;85.17;45250.91;5089403;28;20441;-58
2023/12/12 00:22:11;;;;;;;0.80;0.60;;;;;;;-143.84;85.29;45237.59;5089185;28;20505;-59
2023/12/12 00:24:38;;;;;;;0.90;0.77;;;;;;;-143.84;85.14;45252.81;5089326;28;20484;-59
2023/12/12 00:27:05;;;;;;;6.40;1.90;;;;;;;-143.84;85.58;45247.09;5089436;28;20940;-59
2023/12/12 00:29:35;;;;;;;1.07;0.97;;;;;;;-143.84;85.68;45247.09;5089397;28;20441;-59
2023/12/12 00:32:02;;;;;;;1.43;0.70;;;;;;;-143.84;85.62;45235.69;5089493;28;20443;-59
2023/12/12 00:34:31;;;;;;;2.43;2.23;;;;;;;-143.84;85.59;45216.63;5089062;28;20442;-59
2023/12/12 00:36:58;;;;;;;0.87;0.70;;;;;;;-143.84;85.69;45256.63;5089012;28;20497;-59
2023/12/12 00:39:25;;;;;;;0.90;0.70;;;;;;;-143.84;85.25;45250.91;5089207;28;20482;-59
2023/12/12 00:41:53;;;;;;;1.13;1.03;;;;;;;-143.84;85.53;45220.44;5089103;28;20433;-59
2023/12/12 00:44:20;;;;;;;1.03;0.70;;;;;;;-143.84;85.58;45243.31;5088976;28;20488;-60
2023/12/12 00:46:47;;;;;;;4.23;2.50;;;;;;;-143.84;85.46;45247.09;5088970;28;20446;-59
2023/12/12 00:49:14;;;;;;;1.20;1.10;;;;;;;-143.84;85.24;45239.50;5088883;28;20910;-59
2023/12/12 00:51:42;;;;;;;0.80;0.50;;;;;;;-143.84;84.67;45249.00;5089002;28;20440;-59
2023/12/12 00:54:10;;;;;;;0.80;0.50;;;;;;;-143.84;84.60;45252.81;5088901;28;20947;-59
2023/12/12 00:56:37;;;;;;;0.90;0.70;;;;;;;-143.84;84.34;45254.72;5088816;28;20495;-59
2023/12/12 00:59:04;;;;;;;0.80;0.50;;;;;;;-143.84;83.06;45262.34;5088759;28;20449;-59
2023/12/12 01:01:31;;;;;;;0.80;0.50;;;;;;;-143.84;82.35;45254.72;5089086;28;20444;-59
2023/12/12 01:03:58;;;;;;;1.57;1.17;;;;;;;-143.84;81.18;45235.69;5088741;28;20483;-59
2023/12/12 01:06:26;;;;;;;0.80;0.50;;;;;;;-143.84;80.30;45226.16;5088658;28;20865;-59
2023/12/12 01:08:55;;;;;;;1.83;0.80;;;;;;;-143.84;78.97;45252.81;5088888;28;20439;-60
2023/12/12 01:11:22;;;;;;;1.40;0.90;;;;;;;-143.84;78.63;45228.06;5088576;28;20438;-60
2023/12/12 01:13:49;;;;;;;0.80;0.67;;;;;;;-143.84;77.97;45239.50;5088479;28;21118;-59
2023/12/12 01:16:17;;;;;;;1.00;0.60;;;;;;;-143.84;77.50;45209.03;5088610;28;20494;-59
2023/12/12 01:18:44;;;;;;;1.63;0.80;;;;;;;-143.84;76.74;45239.50;5088542;28;20535;-59
2023/12/12 01:21:11;;;;;;;0.80;0.50;;;;;;;-143.84;76.35;45252.81;5088662;28;21058;-59
2023/12/12 01:23:48;;;;;;;1.33;1.23;;;;;;;-143.84;75.83;45228.06;5088829;28;20434;-59
2023/12/12 01:26:18;;;;;;;0.80;0.50;;;;;;;-143.84;75.83;45220.44;5088744;28;20434;-59
2023/12/12 01:28:46;;;;;;;0.80;0.50;;;;;;;-143.84;75.30;45233.78;5088343;28;20438;-59
2023/12/12 01:31:13;;;;;;;1.00;0.87;;;;;;;-143.84;74.74;45258.53;5088716;28;20431;-59
2023/12/12 01:33:40;;;;;;;1.00;0.90;;;;;;;-143.84;74.60;45220.44;5088342;28;20504;-59
2023/12/12 01:36:08;;;;;;;1.00;0.90;;;;;;;-143.84;73.98;45235.69;5088465;28;20450;-59
2023/12/12 01:38:35;;;;;;;0.80;0.40;;;;;;;-143.84;74.04;45243.31;5088359;28;20450;-59
2023/12/12 01:41:03;;;;;;;0.90;0.60;;;;;;;-143.84;73.14;45250.91;5088308;28;20447;-59
2023/12/12 01:43:33;;;;;;;0.80;0.50;;;;;;;-143.84;72.65;45210.94;5088385;28;20499;-59
2023/12/12 01:46:03;;;;;;;1.63;1.27;;;;;;;-143.84;72.38;45229.97;5088051;28;20606;-59
2023/12/12 01:48:31;;;;;;;0.90;0.73;;;;;;;-143.84;71.82;45245.19;5088050;28;20504;-59
2023/12/12 01:50:59;;;;;;;1.03;0.77;;;;;;;-143.84;72.12;45226.16;5088285;28;20439;-59
2023/12/12 01:53:29;;;;;;;1.20;1.10;;;;;;;-143.84;74.97;45216.63;5088196;28;20434;-59
2023/12/12 01:55:57;;;;;;;1.10;1.00;;;;;;;-143.84;76.60;45226.16;5088082;28;20447;-59
2023/12/12 01:58:26;;;;;;;0.80;0.60;;;;;;;-143.84;77.54;45235.69;5088448;28;20495;-59
2023/12/12 02:00:56;;;;;;;0.80;0.53;;;;;;;-143.84;78.95;45256.63;5088196;28;20530;-59
2023/12/12 02:03:25;;;;;;;3.17;1.30;;;;;;;-143.84;79.61;45203.31;5087914;28;20447;-59
2023/12/12 02:05:58;;;;;;;1.40;1.23;;;;;;;-143.84;80.45;45226.16;5088072;28;20886;-59
2023/12/12 02:08:26;;;;;;;1.10;0.87;;;;;;;-143.84;81.20;45237.59;5088189;28;20451;-59
2023/12/12 02:10:54;;;;;;;0.80;0.50;;;;;;;-143.84;82.48;45252.81;5088197;28;20565;-59
2023/12/12 02:13:21;;;;;;;1.10;1.00;;;;;;;-143.84;83.76;45245.19;5088213;28;20442;-59
2023/12/12 02:15:49;;;;;;;0.90;0.70;;;;;;;-143.84;83.70;45229.97;5088354;28;20445;-59
2023/12/12 02:18:17;;;;;;;1.90;1.80;;;;;;;-143.84;83.51;45233.78;5087748;28;20554;-59
2023/12/12 02:20:44;;;;;;;0.80;0.50;;;;;;;-143.84;82.60;45247.09;5087925;28;20471;-59
2023/12/12 02:23:13;;;;;;;4.20;1.33;;;;;;;-143.84;82.66;45243.31;5088053;28;20431;-59
2023/12/12 02:25:40;;;;;;;1.10;0.60;;;;;;;-143.84;82.31;45233.78;5088047;28;20487;-59
2023/12/12 02:28:08;;;;;;;0.80;0.60;;;;;;;-143.84;81.90;45231.88;5091300;28;20496;-59
2023/12/12 02:30:36;;;;;;;0.80;0.63;;;;;;;-143.84;81.13;45231.88;5091443;28;20531;-59
2023/12/12 02:33:04;;;;;;;1.33;1.23;;;;;;;-143.84;81.10;45231.88;5092061;28;20433;-59
2023/12/12 02:35:31;;;;;;;0.80;0.40;;;;;;;-143.84;81.10;45231.88;5091579;28;21121;-59
2023/12/12 02:37:58;;;;;;;0.80;0.60;;;;;;;-143.84;80.70;45237.59;5091480;28;20441;-59
2023/12/12 02:40:27;;;;;;;0.80;0.50;;;;;;;-143.84;80.78;45235.69;5091687;28;21212;-59
2023/12/12 02:42:54;;;;;;;0.80;0.70;;;;;;;-143.84;80.62;45231.88;5091339;28;20525;-59
2023/12/12 02:45:21;;;;;;;2.43;1.20;;;;;;;-143.84;80.29;45256.63;5091229;28;20983;-59
2023/12/12 02:47:48;;;;;;;1.00;0.80;;;;;;;-143.84;80.76;45237.59;5091253;28;20449;-58
2023/12/12 02:50:15;;;;;;;0.80;0.50;;;;;;;-143.84;80.19;45247.09;5091252;28;20503;-59
2023/12/12 02:52:43;;;;;;;1.17;1.07;;;;;;;-143.84;80.11;45243.31;5091059;28;20430;-59
2023/12/12 02:55:10;;;;;;;0.80;0.50;;;;;;;-143.84;80.38;45226.16;5091013;28;20443;-59
2023/12/12 02:57:38;;;;;;;0.80;0.50;;;;;;;-143.84;80.84;45239.50;5091090;28;20438;-59
2023/12/12 03:00:08;;;;;;;2.53;1.60;;;;;;;-143.84;80.87;45229.97;5091006;28;20443;-59
2023/12/12 03:02:35;;;;;;;1.10;0.87;;;;;;;-143.84;80.84;45250.91;5090890;28;20455;-59
2023/12/12 03:05:03;;;;;;;1.17;0.97;;;;;;;-143.84;80.81;45220.44;5091266;28;20552;-59
2023/12/12 03:07:30;;;;;;;0.83;0.70;;;;;;;-143.84;80.96;45214.72;5090658;28;20444;-59
2023/12/12 03:09:57;;;;;;;0.90;0.80;;;;;;;-143.84;80.51;45233.78;5090585;28;21009;-59
2023/12/12 03:12:25;;;;;;;1.10;1.03;;;;;;;-143.84;80.59;45245.19;5090323;28;20442;-58
2023/12/12 03:14:53;;;;;;;1.50;1.13;;;;;;;-143.84;80.71;45249.00;5090154;28;20435;-59
2023/12/12 03:17:20;;;;;;;0.80;0.60;;;;;;;-143.84;79.53;45245.19;5090160;28;20485;-59
2023/12/12 03:19:49;;;;;;;1.43;1.10;;;;;;;-143.84;79.31;45249.00;5090161;28;20968;-59
2023/12/12 03:22:16;;;;;;;0.90;0.70;;;;;;;-143.84;78.86;45233.78;5090348;28;20451;-59
2023/12/12 03:24:43;;;;;;;2.40;0.73;;;;;;;-143.84;79.10;45250.91;5090649;28;20864;-59
2023/12/12 03:27:10;;;;;;;1.33;1.13;;;;;;;-143.84;78.99;45256.63;5090349;28;20446;-59
2023/12/12 03:29:38;;;;;;;0.80;0.40;;;;;;;-143.84;78.65;45249.00;5090283;28;20937;-59
2023/12/12 03:32:07;;;;;;;0.80;0.40;;;;;;;-143.84;78.49;45243.31;5090326;28;20456;-60
2023/12/12 03:34:33;;;;;;;0.80;0.50;;;;;;;-143.84;78.44;45216.63;5090516;28;20442;-59
2023/12/12 03:37:00;;;;;;;0.93;0.67;;;;;;;-143.84;78.06;45237.59;5090371;28;20443;-60
2023/12/12 03:39:28;;;;;;;3.33;1.90;;;;;;;-143.84;77.35;45254.72;5090212;28;20512;-58
2023/12/12 03:41:55;;;;;;;0.87;0.80;;;;;;;-143.84;77.45;45237.59;5090349;28;20497;-59
2023/12/12 03:44:22;;;;;;;0.80;0.70;;;;;;;-143.84;76.75;45231.88;5089877;28;20509;-59
2023/12/12 03:46:49;;;;;;;1.50;1.40;;;;;;;-143.84;76.43;45210.94;5090328;28;20773;-59
2023/12/12 03:49:18;;;;;;;0.80;0.50;;;;;;;-143.84;75.93;45235.69;5089908;28;20447;-59
2023/12/12 03:51:45;;;;;;;1.53;1.07;;;;;;;-143.84;75.94;45241.41;5089950;28;20450;-59
2023/12/12 03:54:12;;;;;;;0.80;0.50;;;;;;;-143.84;75.46;45222.34;5089947;28;20515;-59
2023/12/12 03:56:39;;;;;;;0.80;0.50;;;;;;;-143.84;74.43;45243.31;5089850;28;20439;-59
2023/12/12 03:59:06;;;;;;;1.00;0.90;;;;;;;-143.84;74.56;45214.72;5089776;28;20511;-59
2023/12/12 04:01:33;;;;;;;0.80;0.50;;;;;;;-143.84;74.30;45235.69;5090051;28;20430;-59
2023/12/12 04:04:00;;;;;;;0.80;0.50;;;;;;;-143.84;74.98;45231.88;5089843;28;20948;-59
2023/12/12 04:06:29;;;;;;;1.43;0.80;;;;;;;-143.84;74.45;45226.16;5089741;28;20544;-60
2023/12/12 04:08:56;;;;;;;0.93;0.80;;;;;;;-143.84;74.27;45210.94;5089724;28;20940;-59
2023/12/12 04:11:23;;;;;;;1.10;0.60;;;;;;;-143.84;73.67;45228.06;5089677;28;20444;-60
2023/12/12 04:13:51;;;;;;;3.67;1.47;;;;;;;-143.84;73.16;45247.09;5089679;28;21006;-59
2023/12/12 04:16:18;;;;;;;2.10;0.90;;;;;;;-143.84;73.54;45216.63;5089552;28;20492;-59
2023/12/12 04:18:45;;;;;;;0.80;0.47;;;;;;;-143.84;73.42;45260.44;5090022;28;20428;-59
2023/12/12 04:21:12;;;;;;;1.40;0.60;;;;;;;-143.84;73.89;45210.94;5075295;28;21671;-61
2023/12/12 04:23:42;;;;;;;1.77;1.30;;;;;;;-143.84;73.16;45220.44;5069294;28;20448;-61
2023/12/12 04:26:10;;;;;;;0.80;0.70;;;;;;;-143.84;73.35;45247.09;5068931;28;20479;-61
2023/12/12 04:28:38;;;;;;;0.80;0.50;;;;;;;-143.84;73.30;45212.84;5068875;28;20446;-61
2023/12/12 04:31:05;;;;;;;1.00;0.90;;;;;;;-143.84;73.34;45247.09;5068868;28;20501;-61
2023/12/12 04:33:32;;;;;;;0.80;0.50;;;;;;;-143.84;74.01;45229.97;5069331;28;20907;-61
2023/12/12 04:36:01;;;;;;;0.80;0.50;;;;;;;-143.84;73.79;45212.84;5068466;28;20823;-61
2023/12/12 04:38:28;;;;;;;1.40;0.70;;;;;;;-143.84;73.39;45220.44;5068748;28;20440;-61
2023/12/12 04:40:56;;;;;;;0.80;0.40;;;;;;;-143.84;72.67;45229.97;5069108;28;20498;-61
2023/12/12 04:43:23;;;;;;;1.00;0.90;;;;;;;-143.84;72.67;45203.31;5068834;28;20453;-61
2023/12/12 04:45:50;;;;;;;1.70;1.60;;;;;;;-143.84;72.45;45239.50;5068592;28;20472;-61
2023/12/12 04:48:18;;;;;;;1.27;1.17;;;;;;;-143.84;73.10;45214.72;5068757;28;20447;-61
2023/12/12 04:50:45;;;;;;;2.00;1.13;;;;;;;-143.84;72.70;45224.25;5067768;28;20473;-61
2023/12/12 04:53:12;;;;;;;0.80;0.47;;;;;;;-143.84;72.68;45212.84;5084842;28;20444;-61
2023/12/12 04:55:39;;;;;;;0.90;0.60;;;;;;;-143.84;73.04;45207.13;5088618;28;20443;-61
2023/12/12 04:58:08;;;;;;;1.33;0.83;;;;;;;-143.84;73.02;45214.72;5088893;28;20431;-61
2023/12/12 05:00:35;;;;;;;1.07;0.97;;;;;;;-143.84;73.16;45199.50;5086894;28;20471;-61
2023/12/12 05:03:02;;;;;;;1.17;0.77;;;;;;;-143.84;72.82;45235.69;5076161;28;20452;-61
2023/12/12 05:05:29;;;;;;;2.87;0.70;;;;;;;-143.84;72.52;45216.63;5073221;28;20487;-61
2023/12/12 05:07:56;;;;;;;0.90;0.80;;;;;;;-143.84;72.44;45214.72;5068561;28;20816;-61
2023/12/12 05:10:24;;;;;;;0.83;0.50;;;;;;;-143.84;72.31;45218.53;5068438;28;20491;-61
2023/12/12 05:12:51;;;;;;;2.50;1.53;;;;;;;-143.84;71.50;45229.97;5068232;28;20475;-61
2023/12/12 05:15:19;;;;;;;1.60;0.73;;;;;;;-143.84;71.53;45233.78;5068552;28;20923;-61
2023/12/12 05:17:46;;;;;;;9.93;0.80;;;;;;;-143.84;71.68;45235.69;5068347;28;20480;-61
2023/12/12 05:20:13;;;;;;;0.80;0.77;;;;;;;-143.84;71.76;45239.50;5068245;28;20445;-61
2023/12/12 05:22:41;;;;;;;0.83;0.73;;;;;;;-143.84;71.85;45239.50;5068408;28;20441;-61
2023/12/12 05:25:08;;;;;;;0.80;0.50;;;;;;;-143.84;71.99;45239.50;5068119;28;20472;-60
2023/12/12 05:27:35;;;;;;;2.30;1.10;;;;;;;-143.84;72.41;45220.44;5068256;28;20436;-61
2023/12/12 05:30:03;;;;;;;1.43;1.33;;;;;;;-143.84;72.56;45220.44;5068400;28;20858;-61
2023/12/12 05:32:31;;;;;;;1.73;0.80;;;;;;;-143.84;72.52;45209.03;5068249;28;20845;-61
2023/12/12 05:34:58;;;;;;;1.63;0.90;;;;;;;-143.84;72.13;45224.25;5068066;28;20448;-60
2023/12/12 05:37:25;;;;;;;0.80;0.50;;;;;;;-143.84;71.94;45207.13;5068422;28;20826;-61
2023/12/12 05:39:52;;;;;;;0.97;0.87;;;;;;;-143.84;71.25;45237.59;5068060;28;20490;-61
2023/12/12 05:42:20;;;;;;;1.53;1.43;;;;;;;-143.84;71.68;45235.69;5068380;28;20935;-61
2023/12/12 05:44:47;;;;;;;1.43;1.33;;;;;;;-143.84;71.30;45216.63;5068226;28;20445;-61
2023/12/12 05:47:14;;;;;;;0.90;0.70;;;;;;;-143.84;71.24;45205.22;5067975;28;20477;-61
2023/12/12 05:49:43;;;;;;;1.73;1.13;;;;;;;-143.84;71.22;45209.03;5068124;28;20445;-61
2023/12/12 05:52:10;;;;;;;0.80;0.40;;;;;;;-143.84;70.63;45241.41;5068338;28;20805;-61
2023/12/12 05:54:38;;;;;;;1.07;0.53;;;;;;;-143.84;69.78;45254.72;5068013;28;20448;-61
2023/12/12 05:57:05;;;;;;;0.80;0.50;;;;;;;-143.84;70.37;45220.44;5068132;28;20440;-61
2023/12/12 05:59:33;;;;;;;0.80;0.60;;;;;;;-143.84;70.08;45233.78;5068262;28;20440;-61
2023/12/12 06:02:00;;;;;;;0.80;0.53;;;;;;;-143.84;70.85;45243.31;5070034;28;21212;-61
2023/12/12 06:04:28;;;;;;;2.17;1.97;;;;;;;-143.84;71.78;45233.78;5071955;28;21325;-61
2023/12/12 06:06:57;;;;;;;0.80;0.50;;;;;;;-143.84;73.54;45226.16;5071755;28;20484;-61
2023/12/12 06:09:24;;;;;;;2.30;2.20;;;;;;;-143.84;75.92;45224.25;5071679;28;20440;-61
2023/12/12 06:11:51;;;;;;;4.10;2.07;;;;;;;-143.84;76.60;45247.09;5071677;28;20438;-61
2023/12/12 06:14:18;;;;;;;2.83;1.87;;;;;;;-143.84;76.17;45228.06;5071717;28;20443;-61
2023/12/12 06:16:46;;;;;;;5.40;2.27;;;;;;;-143.84;77.44;45239.50;5071443;28;20495;-61
2023/12/12 06:19:13;;;;;;;1.53;1.43;;;;;;;-143.84;77.76;45237.59;5071822;28;20871;-60
2023/12/12 06:21:40;;;;;;;1.40;0.97;;;;;;;-143.84;77.80;45212.84;5071574;28;20511;-61
2023/12/12 06:24:09;;;;;;;4.37;2.63;;;;;;;-143.84;78.57;45254.72;5071209;28;20434;-61
2023/12/12 06:26:37;;;;;;;10.10;1.73;;;;;;;-143.84;78.38;45214.72;5071281;28;20541;-61
2023/12/12 06:29:07;;;;;;;3.53;1.53;;;;;;;-143.84;78.45;45250.91;5071322;28;20480;-61
2023/12/12 06:31:35;;;;;;;1.83;1.73;;;;;;;-143.84;78.91;45224.25;5071431;28;20533;-61
2023/12/12 06:34:02;;;;;;;1.70;1.53;;;;;;;-143.84;78.73;45195.69;5071319;28;20442;-60
2023/12/12 06:36:29;;;;;;;1.57;1.47;;;;;;;-143.84;78.30;45228.06;5071145;28;20444;-60
2023/12/12 06:38:56;;;;;;;1.47;1.17;;;;;;;-143.84;78.47;45250.91;5071181;28;21002;-61
2023/12/12 06:41:25;;;;;;;5.23;2.27;;;;;;;-143.84;78.88;45214.72;5071088;28;20941;-61
2023/12/12 06:43:52;;;;;;;1.10;1.00;;;;;;;-143.84;79.25;45220.44;5071165;28;20456;-61
2023/12/12 06:46:19;;;;;;;1.67;1.50;;;;;;;-143.84;79.30;45237.59;5070944;28;20471;-61
2023/12/12 06:48:46;;;;;;;0.80;0.70;;;;;;;-143.84;78.71;45237.59;5071189;28;20946;-61
2023/12/12 06:51:13;;;;;;;1.43;1.27;;;;;;;-143.84;78.50;45226.16;5071246;28;20831;-61
2023/12/12 06:53:41;;;;;;;1.87;1.20;;;;;;;-143.84;78.53;45283.28;5070781;28;20441;-61
2023/12/12 06:56:10;;;;;;;0.80;0.70;;;;;;;-143.84;78.44;45243.31;5070828;28;20464;-61
2023/12/12 06:58:39;;;;;;;0.80;0.60;;;;;;;-143.84;78.52;45210.94;5070781;28;20444;-61
2023/12/12 07:01:06;;;;;;;3.77;2.87;;;;;;;-143.84;77.64;45218.53;5070672;28;20466;-61
2023/12/12 07:03:34;;;;;;;1.50;1.40;;;;;;;-143.84;77.00;45216.63;5070691;28;20449;-61
2023/12/12 07:06:02;;;;;;;1.87;1.77;;;;;;;-143.84;77.08;45235.69;5070570;28;20476;-61
2023/12/12 07:08:29;;;;;;;1.30;1.20;;;;;;;-143.84;77.38;45220.44;5070740;28;20444;-61
2023/12/12 07:10:57;;;;;;;2.27;1.57;;;;;;;-143.84;76.58;45247.09;5070688;28;20451;-61
2023/12/12 07:13:24;;;;;;;1.90;1.70;;;;;;;-143.84;76.53;45237.59;5070260;28;20441;-61
2023/12/12 07:15:52;;;;;;;2.90;2.70;;;;;;;-143.84;76.86;45226.16;5070538;28;21205;-61
2023/12/12 07:18:19;;;;;;;6.93;2.83;;;;;;;-143.84;76.72;45237.59;5070606;28;20831;-60
2023/12/12 07:20:47;;;;;;;1.43;1.33;;;;;;;-143.84;77.01;45224.25;5070346;28;20444;-61
2023/12/12 07:23:14;;;;;;;0.90;0.70;;;;;;;-143.84;77.15;45201.41;5070527;28;20449;-61
2023/12/12 07:25:41;;;;;;;1.33;1.23;;;;;;;-143.84;77.21;45214.72;5070379;28;20776;-61
2023/12/12 07:28:09;;;;;;;3.00;1.77;;;;;;;-143.84;77.59;45237.59;5070424;28;20821;-61
2023/12/12 07:30:36;;;;;;;1.50;1.40;;;;;;;-143.84;77.19;45184.25;5070198;28;20797;-61
2023/12/12 07:33:05;;;;;;;1.73;1.63;;;;;;;-143.84;76.04;45226.16;5070117;28;20433;-61
2023/12/12 07:35:32;;;;;;;7.47;3.47;;;;;;;-143.84;75.51;45218.53;5069841;28;20452;-61
2023/12/12 07:38:01;;;;;;;2.80;2.60;;;;;;;-143.84;74.84;45216.63;5070277;28;20776;-61
2023/12/12 07:40:30;;;;;;;3.53;2.10;;;;;;;-143.84;75.95;45218.53;5070453;28;20491;-61
2023/12/12 07:42:57;;;;;;;5.23;2.70;;;;;;;-143.84;75.05;45210.94;5069927;28;20581;-61
2023/12/12 07:45:24;;;;;;;2.03;1.93;;;;;;;-143.84;75.51;45209.03;5069720;28;20452;-61
2023/12/12 07:47:51;;;;;;;2.87;2.60;;;;;;;-143.84;75.53;45207.13;5069053;28;20488;-61
2023/12/12 07:50:20;;;;;;;1.37;1.00;;;;;;;-143.84;75.15;45212.84;5068772;28;20447;-61
2023/12/12 07:52:48;;;;;;;2.13;1.97;;;;;;;-143.84;74.41;45201.41;5069450;28;20448;-61
2023/12/12 07:55:15;;;;;;;2.80;1.90;;;;;;;-143.84;75.38;45195.69;5069095;28;20532;-61
2023/12/12 07:57:42;;;;;;;1.60;1.50;;;;;;;-143.84;75.53;45233.78;5069577;28;20437;-61
2023/12/12 08:00:11;;;;;;;3.40;1.37;;;;;;;-143.84;75.78;45214.72;5069333;28;20463;-61
2023/12/12 08:02:38;;;;;;;1.97;1.83;;;;;;;-143.84;75.64;45235.69;5069457;28;20441;-61
2023/12/12 08:05:06;;;;;;;2.50;2.20;;;;;;;-143.84;75.81;45203.31;5069662;28;20433;-61
2023/12/12 08:07:34;;;;;;;2.00;1.70;;;;;;;-143.84;76.99;45235.69;5069319;28;20572;-61
2023/12/12 08:10:02;;;;;;;2.43;2.10;;;;;;;-143.84;75.63;45212.84;5069400;28;20509;-61
2023/12/12 08:12:29;;;;;;;1.33;1.23;;;;;;;-143.84;75.19;45220.44;5069416;28;20437;-61
2023/12/12 08:14:56;;;;;;;1.57;1.20;;;;;;;-143.84;74.10;45218.53;5069266;28;20445;-61
2023/12/12 08:17:24;;;;;;;5.60;2.37;;;;;;;-143.84;73.51;45199.50;5069193;28;20983;-61
2023/12/12 08:19:51;;;;;;;1.73;1.63;;;;;;;-143.84;73.33;45237.59;5069145;28;20497;-61
2023/12/12 08:22:18;;;;;;;3.03;2.03;;;;;;;-143.84;73.76;45207.13;5069164;28;20429;-61
2023/12/12 08:24:50;;;;;;;4.73;2.20;;;;;;;-143.84;73.25;45226.16;5068494;28;20461;-61
2023/12/12 08:27:18;;;;;;;2.40;1.60;;;;;;;-143.84;73.19;45243.31;5069137;28;20480;-61
2023/12/12 08:29:45;;;;;;;1.10;1.00;;;;;;;-143.84;72.88;45228.06;5069058;28;20536;-61
2023/12/12 08:32:12;;;;;;;1.77;1.67;;;;;;;-143.84;73.16;45222.34;5069238;28;20447;-61
2023/12/12 08:34:39;;;;;;;3.80;1.90;;;;;;;-143.84;73.53;45228.06;5068885;28;20432;-61
2023/12/12 08:37:06;;;;;;;2.27;2.10;;;;;;;-143.84;73.69;45226.16;5069052;28;20432;-61
2023/12/12 08:39:33;;;;;;;5.03;1.67;;;;;;;-143.84;74.75;45210.94;5069075;28;20445;-61
2023/12/12 08:42:02;;;;;;;2.27;2.13;;;;;;;-143.84;75.28;45231.88;5068839;28;20945;-61
2023/12/12 08:44:30;;;;;;;1.20;1.10;;;;;;;-143.84;75.40;45229.97;5068756;28;20572;-61
2023/12/12 08:46:57;;;;;;;1.33;1.23;;;;;;;-143.84;76.04;45203.31;5068945;28;20564;-61
2023/12/12 08:49:25;;;;;;;1.27;1.17;;;;;;;-143.84;75.68;45195.69;5068493;28;20455;-61
2023/12/12 08:51:52;;;;;;;3.10;2.77;;;;;;;-143.84;76.26;45203.31;5068639;28;20802;-61
2023/12/12 08:54:19;;;;;;;2.70;1.47;;;;;;;-143.84;76.26;45233.78;5068710;28;20456;-60
2023/12/12 08:56:52;;;;;;;1.33;0.87;;;;;;;-143.84;76.19;45245.19;5068698;28;20923;-61
2023/12/12 08:59:22;;;;;;;0.90;0.80;;;;;;;-143.84;75.01;45207.13;5068891;28;20524;-61
2023/12/12 09:01:49;;;;;;;2.13;1.53;;;;;;;-143.84;74.66;45218.53;5068524;28;20433;-60
2023/12/12 09:04:16;;;;;;;2.53;1.10;;;;;;;-143.84;74.01;45249.00;5068728;28;20520;-61
2023/12/12 09:06:44;;;;;;;1.47;1.23;;;;;;;-143.84;73.86;45226.16;5068526;28;20914;-61
2023/12/12 09:09:12;;;;;;;2.13;1.93;;;;;;;-143.84;73.33;45184.25;5068432;28;20432;-61
2023/12/12 09:11:40;;;;;;;2.00;1.23;;;;;;;-143.84;73.04;45212.84;5068526;28;20448;-61
2023/12/12 09:14:08;;;;;;;2.03;1.93;;;;;;;-143.84;73.22;45239.50;5068535;28;20458;-61
2023/12/12 09:16:37;;;;;;;1.37;0.73;;;;;;;-143.84;73.28;45205.22;5068090;28;20489;-61
2023/12/12 09:19:04;;;;;;;1.53;1.33;;;;;;;-143.84;72.61;45250.91;5068753;28;20445;-60
2023/12/12 09:21:31;;;;;;;0.90;0.70;;;;;;;-143.84;72.29;45207.13;5068786;28;20999;-61
2023/12/12 09:23:58;;;;;;;1.50;1.20;;;;;;;-143.84;71.94;45207.13;5068539;28;20985;-61
2023/12/12 09:26:25;;;;;;;2.40;0.90;;;;;;;-143.84;72.15;45205.22;5068349;28;20440;-61
2023/12/12 09:28:52;;;;;;;1.13;0.90;;;;;;;-143.84;73.50;45239.50;5068625;28;20841;-61
2023/12/12 09:31:26;;;;;;;2.70;1.03;;;;;;;-143.84;73.78;45212.84;5068468;28;20517;-60
2023/12/12 09:33:56;;;;;;;5.13;0.97;;;;;;;-143.84;73.32;45209.03;5068313;28;20447;-61
2023/12/12 09:36:23;;;;;;;1.67;0.63;;;;;;;-143.84;73.07;45241.41;5070898;28;20961;-61
2023/12/12 09:38:50;;;;;;;0.90;0.70;;;;;;;-143.84;73.24;45201.41;5072399;28;20502;-61
2023/12/12 09:41:21;;;;;;;2.30;1.90;;;;;;;-143.84;73.61;45209.03;5072504;28;20817;-61
2023/12/12 09:43:50;;;;;;;1.63;1.53;;;;;;;-143.84;73.90;45197.59;5072369;28;20440;-61
2023/12/12 09:46:17;;;;;;;1.10;0.90;;;;;;;-143.84;73.39;45224.25;5071974;28;20441;-61
2023/12/12 09:48:46;;;;;;;1.73;1.63;;;;;;;-143.84;72.51;45199.50;5072145;28;20437;-61
2023/12/12 09:51:15;;;;;;;0.87;0.67;;;;;;;-143.84;72.24;45212.84;5072331;28;20436;-61
2023/12/12 09:53:46;;;;;;;2.20;1.13;;;;;;;-143.84;73.04;45207.13;5072508;28;20457;-61
2023/12/12 09:56:16;;;;;;;0.97;0.87;;;;;;;-143.84;73.13;45207.13;5072201;28;20447;-61
2023/12/12 09:58:46;;;;;;;1.83;1.73;;;;;;;-143.84;73.73;45209.03;5072142;28;20536;-61
2023/12/12 10:01:14;;;;;;;1.53;1.43;;;;;;;-143.84;73.92;45210.94;5071803;28;20436;-61
2023/12/12 10:03:42;;;;;;;1.57;1.40;;;;;;;-143.84;73.87;45220.44;5072096;28;20812;-60
2023/12/12 10:06:11;;;;;;;2.40;0.93;;;;;;;-143.84;73.02;45214.72;5071829;28;20451;-60
2023/12/12 10:08:40;;;;;;;4.30;2.03;;;;;;;-143.84;72.93;45239.50;5071761;28;20472;-61
2023/12/12 10:11:09;;;;;;;1.70;1.23;;;;;;;-143.84;73.72;45220.44;5071880;28;20440;-61
2023/12/12 10:13:50;;;;;;;2.50;1.90;;;;;;;-143.84;73.30;45222.34;5071734;28;20996;-61
2023/12/12 10:16:18;;;;;;;1.10;0.90;;;;;;;-143.84;73.79;45239.50;5071574;28;20988;-61
2023/12/12 10:18:46;;;;;;;1.33;0.90;;;;;;;-143.84;73.40;45224.25;5071924;28;20455;-61
2023/12/12 10:21:18;;;;;;;2.53;1.23;;;;;;;-143.84;73.62;45250.91;5071515;28;20453;-61
2023/12/12 10:23:48;;;;;;;3.43;1.53;;;;;;;-143.84;74.10;45245.19;5071468;28;20432;-61
2023/12/12 10:26:15;;;;;;;2.40;1.80;;;;;;;-143.84;74.14;45207.13;5071714;28;20514;-61
2023/12/12 10:28:43;;;;;;;0.90;0.73;;;;;;;-143.84;73.65;45231.88;5071938;28;20487;-61
2023/12/12 10:31:11;;;;;;;2.50;2.30;;;;;;;-143.84;73.79;45210.94;5071393;28;20451;-60
2023/12/12 10:33:39;;;;;;;0.80;0.50;;;;;;;-143.84;73.58;45226.16;5071360;28;20442;-61
2023/12/12 10:36:10;;;;;;;1.07;0.97;;;;;;;-143.84;72.93;45205.22;5071347;28;21202;-61
2023/12/12 10:38:38;;;;;;;0.80;0.53;;;;;;;-143.84;72.51;45205.22;5071189;28;20519;-61
2023/12/12 10:41:15;;;;;;;0.90;0.67;;;;;;;-143.84;71.96;45226.16;5071331;28;21151;-61
2023/12/12 10:43:44;;;;;;;0.80;0.70;;;;;;;-143.84;72.54;45229.97;5071470;28;20934;-61
2023/12/12 10:46:12;;;;;;;0.80;0.60;;;;;;;-143.84;72.25;45220.44;5071258;28;20448;-61
2023/12/12 10:48:44;;;;;;;1.10;1.00;;;;;;;-143.84;72.82;45191.88;5070448;28;20490;-61
2023/12/12 10:51:12;;;;;;;1.30;0.90;;;;;;;-143.84;72.82;45214.72;5071115;28;20472;-61
2023/12/12 10:53:41;;;;;;;1.10;1.00;;;;;;;-143.84;72.61;45254.72;5070764;28;20449;-61
2023/12/12 10:56:10;;;;;;;2.30;1.80;;;;;;;-143.84;73.00;45231.88;5071135;28;20437;-61
2023/12/12 10:58:41;;;;;;;1.30;1.20;;;;;;;-143.84;72.80;45218.53;5070813;28;20433;-61
2023/12/12 11:01:10;;;;;;;1.00;0.90;;;;;;;-143.84;72.73;45212.84;5070826;28;20517;-61
2023/12/12 11:03:38;;;;;;;1.40;1.10;;;;;;;-143.84;72.32;45203.31;5070878;28;20792;-61
2023/12/12 11:06:07;;;;;;;0.80;0.50;;;;;;;-143.84;73.15;45229.97;5070924;28;20445;-61
2023/12/12 11:08:35;;;;;;;4.30;2.10;;;;;;;-143.84;72.57;45245.19;5070857;28;20864;-61
2023/12/12 11:11:07;;;;;;;0.87;0.77;;;;;;;-143.84;73.01;45233.78;5070445;28;20447;-60
2023/12/12 11:13:38;;;;;;;2.07;1.20;;;;;;;-143.84;72.33;45207.13;5070494;28;20467;-61
2023/12/12 11:16:09;;;;;;;1.60;1.50;;;;;;;-143.84;72.35;45216.63;5070650;28;20456;-61
2023/12/12 11:18:39;;;;;;;3.57;1.93;;;;;;;-143.84;72.42;45220.44;5070600;28;20457;-61